Time;durP1;ratioP1;P1;durP2;ratioP2;P2;SDS_P1;SDS_P2;PMS_P1;PMS_P2;Temp;Humidity;BMP_temperature;BMP_pressure;BME280_temperature;BME280_humidity;BME280_pressure;Samples;Min_cycle;Max_cycle;Signal;HPM_P1;HPM_P2
2022/03/17 00:01:12;;;;;;;39.15;21.65;;;;;;;7.54;77.12;101633.22;5015731;28;20037;-77
2022/03/17 00:03:38;;;;;;;41.67;19.33;;;;;;;7.52;76.93;101636.94;5015489;28;20049;-77
2022/03/17 00:06:05;;;;;;;41.00;18.92;;;;;;;7.62;76.86;101628.31;5033188;28;20084;-76
2022/03/17 00:08:31;;;;;;;46.78;20.33;;;;;;;7.60;76.55;101635.59;5033379;28;20025;-76
2022/03/17 00:10:57;;;;;;;52.80;20.80;;;;;;;7.62;76.37;101644.41;5033316;28;20466;-76
2022/03/17 00:13:22;;;;;;;42.47;19.48;;;;;;;7.65;76.59;101636.19;5033226;28;20044;-76
2022/03/17 00:15:48;;;;;;;53.92;19.05;;;;;;;7.73;76.22;101632.25;5015116;28;20041;-76
2022/03/17 00:18:13;;;;;;;36.72;19.60;;;;;;;7.76;75.99;101632.97;5032913;28;20098;-77
2022/03/17 00:20:39;;;;;;;42.90;19.25;;;;;;;7.67;76.15;101634.28;5032756;28;20029;-76
2022/03/17 00:23:05;;;;;;;43.10;19.20;;;;;;;7.57;76.09;101632.19;5032721;28;20021;-76
2022/03/17 00:25:32;;;;;;;36.00;19.77;;;;;;;7.60;76.39;101638.25;5032526;28;20029;-75
2022/03/17 00:27:58;;;;;;;41.40;19.55;;;;;;;7.52;76.62;101644.97;5032266;28;20026;-76
2022/03/17 00:30:24;;;;;;;38.08;19.60;;;;;;;7.42;77.28;101636.56;5014904;28;20032;-76
2022/03/17 00:32:50;;;;;;;41.10;17.67;;;;;;;7.44;77.17;101636.47;5032786;28;20025;-77
2022/03/17 00:37:59;;;;;;;40.22;16.77;;;;;;;7.43;76.90;101640.09;5032576;28;20095;-76
2022/03/17 00:40:25;;;;;;;39.80;18.38;;;;;;;7.40;76.90;101651.81;5042316;28;20352;-76
2022/03/17 00:42:51;;;;;;;38.53;18.17;;;;;;;7.41;77.17;101645.53;5050031;28;20040;-77
2022/03/17 00:45:17;;;;;;;34.63;16.70;;;;;;;7.42;76.69;101652.63;5020014;28;20479;-77
2022/03/17 00:47:43;;;;;;;35.95;16.13;;;;;;;7.32;76.93;101650.47;5044816;28;20116;-76
2022/03/17 00:50:10;;;;;;;43.83;18.80;;;;;;;7.23;76.99;101648.28;5051660;28;20339;-76
2022/03/17 00:52:35;;;;;;;34.05;19.45;;;;;;;7.28;77.20;101652.44;5050641;28;20408;-76
2022/03/17 00:55:01;;;;;;;45.63;19.83;;;;;;;7.37;77.11;101660.00;5041047;28;20079;-76
2022/03/17 00:57:27;;;;;;;36.20;17.98;;;;;;;7.33;77.26;101655.78;5031832;28;20084;-76
2022/03/17 00:59:52;;;;;;;44.95;18.40;;;;;;;7.23;77.03;101654.50;5032092;28;20033;-76
2022/03/17 01:02:18;;;;;;;40.40;17.75;;;;;;;7.32;77.13;101656.69;5032144;28;20072;-77
2022/03/17 01:04:43;;;;;;;37.35;17.08;;;;;;;7.45;77.17;101657.81;5032500;28;20049;-76
2022/03/17 01:07:09;;;;;;;37.70;17.38;;;;;;;7.38;76.98;101655.50;5032129;28;20045;-77
2022/03/17 01:09:35;;;;;;;34.30;17.50;;;;;;;7.36;76.63;101660.09;5032147;28;20472;-76
2022/03/17 01:12:00;;;;;;;44.00;17.02;;;;;;;7.28;76.83;101655.13;5032102;28;20043;-76
2022/03/17 01:14:26;;;;;;;36.80;17.98;;;;;;;7.35;77.38;101663.69;5035039;28;20049;-76
2022/03/17 01:16:52;;;;;;;47.63;18.00;;;;;;;7.40;77.20;101664.34;5032125;28;20436;-76
2022/03/17 01:19:21;;;;;;;50.92;18.70;;;;;;;7.36;77.14;101666.31;5032051;28;20029;-76
2022/03/17 01:21:48;;;;;;;47.42;19.17;;;;;;;7.36;76.50;101666.31;5032141;28;20028;-76
2022/03/17 01:24:13;;;;;;;37.55;19.52;;;;;;;7.23;77.11;101659.84;5032107;28;20029;-76
2022/03/17 01:26:40;;;;;;;50.15;17.88;;;;;;;7.25;76.90;101657.13;5031908;28;20025;-78
2022/03/17 01:29:05;;;;;;;34.80;18.63;;;;;;;7.14;77.64;101649.63;5032098;28;20021;-77
2022/03/17 01:31:31;;;;;;;44.55;18.05;;;;;;;7.16;77.45;101655.75;5032102;28;20025;-77
2022/03/17 01:33:57;;;;;;;41.65;19.02;;;;;;;7.07;77.57;101648.19;5031833;28;20030;-76
2022/03/17 01:36:23;;;;;;;40.83;18.75;;;;;;;7.05;77.90;101652.75;5037029;28;20025;-75
2022/03/17 01:38:48;;;;;;;38.53;17.75;;;;;;;6.96;77.74;101650.56;5022651;28;20030;-76
2022/03/17 01:41:14;;;;;;;35.38;17.90;;;;;;;6.98;77.83;101654.00;5031707;28;20025;-76
2022/03/17 01:43:40;;;;;;;44.15;20.83;;;;;;;6.92;77.95;101655.19;5031637;28;20031;-76
2022/03/17 01:46:05;;;;;;;55.75;21.30;;;;;;;7.00;78.33;101668.19;5031979;28;20030;-76
2022/03/17 01:48:30;;;;;;;48.40;21.05;;;;;;;6.83;78.42;101650.28;5030425;28;20021;-76
2022/03/17 01:50:56;;;;;;;47.72;19.92;;;;;;;6.79;79.01;101669.25;5031864;28;20377;-76
2022/03/17 01:53:22;;;;;;;50.95;20.30;;;;;;;6.87;78.73;101675.06;5031805;28;20883;-76
2022/03/17 01:55:49;;;;;;;48.45;20.27;;;;;;;6.91;78.59;101674.00;5031914;28;20103;-76
2022/03/17 01:58:15;;;;;;;42.25;18.73;;;;;;;6.79;78.81;101664.75;5031872;28;20022;-77
2022/03/17 02:00:42;;;;;;;45.95;21.52;;;;;;;6.77;79.31;101689.81;5031410;28;20360;-76
2022/03/17 02:03:08;;;;;;;46.58;19.85;;;;;;;6.84;79.34;101688.59;5024435;28;20050;-76
2022/03/17 02:05:34;;;;;;;45.88;19.38;;;;;;;6.88;79.27;101690.19;5011963;28;20070;-77
2022/03/17 02:08:00;;;;;;;36.83;18.35;;;;;;;6.68;79.72;101699.16;4994352;28;20026;-76
2022/03/17 02:10:26;;;;;;;43.50;18.65;;;;;;;6.66;80.58;101716.22;4994321;28;20091;-76
2022/03/17 02:13:09;;;;;;;33.90;16.10;;;;;;;6.75;80.63;101723.81;5012165;28;20022;-78
2022/03/17 02:15:35;;;;;;;34.92;15.18;;;;;;;6.62;80.77;101711.97;5011767;28;20038;-76
2022/03/17 02:18:03;;;;;;;53.42;18.92;;;;;;;6.65;81.08;101725.19;5011707;28;20442;-76
2022/03/17 02:20:29;;;;;;;40.40;16.25;;;;;;;6.64;81.46;101731.44;4994174;28;20033;-76
2022/03/17 02:25:33;;;;;;;30.17;14.65;;;;;;;6.65;81.50;101722.50;4996825;28;20503;-76
2022/03/17 02:25:42;;;;;;;47.05;14.88;;;;;;;6.69;81.40;101740.13;5014886;28;20037;-76
2022/03/17 02:28:08;;;;;;;34.10;16.13;;;;;;;6.63;81.57;101722.59;5015421;28;20022;-76
2022/03/17 02:30:36;;;;;;;43.60;15.43;;;;;;;6.71;81.41;101738.25;5015376;28;20408;-76
2022/03/17 02:33:07;;;;;;;35.67;13.15;;;;;;;6.66;81.56;101726.91;5014820;28;20022;-76
2022/03/17 02:35:37;;;;;;;29.55;13.90;;;;;;;6.64;81.42;101731.44;5014979;28;20034;-76
2022/03/17 02:38:04;;;;;;;36.30;12.55;;;;;;;6.62;81.66;101722.66;5014964;28;20117;-76
2022/03/17 02:40:35;;;;;;;27.75;12.25;;;;;;;6.67;81.86;101745.53;5015521;28;20571;-75
2022/03/17 02:43:01;;;;;;;27.70;11.93;;;;;;;6.66;81.77;101753.66;5015057;28;20026;-76
2022/03/17 02:45:27;;;;;;;37.53;11.77;;;;;;;6.66;81.65;101754.53;5015203;28;20091;-77
2022/03/17 02:47:53;;;;;;;22.88;10.25;;;;;;;6.61;81.62;101747.63;5018344;28;20053;-77
2022/03/17 02:50:19;;;;;;;37.47;11.00;;;;;;;6.58;81.93;101756.66;5016586;28;20032;-76
2022/03/17 02:52:44;;;;;;;34.00;12.27;;;;;;;6.56;81.88;101756.75;5014990;28;20033;-77
2022/03/17 02:55:11;;;;;;;29.17;10.30;;;;;;;6.67;82.45;101758.03;5015069;28;20093;-77
2022/03/17 02:57:38;;;;;;;29.42;11.02;;;;;;;6.63;82.09;101760.00;5013417;28;20376;-76
2022/03/17 03:00:09;;;;;;;32.45;12.10;;;;;;;6.71;82.19;101770.31;5014476;28;20034;-77
2022/03/17 03:02:35;;;;;;;34.25;9.73;;;;;;;6.73;81.82;101761.28;5014578;28;20129;-77
2022/03/17 03:05:02;;;;;;;35.35;9.98;;;;;;;6.68;81.55;101762.44;5014654;28;20037;-77
2022/03/17 03:07:27;;;;;;;23.95;8.75;;;;;;;6.67;81.54;101776.75;5014578;28;20441;-78
2022/03/17 03:09:55;;;;;;;22.52;8.43;;;;;;;6.63;81.59;101764.47;5014412;28;20032;-77
2022/03/17 03:12:20;;;;;;;29.63;8.85;;;;;;;6.64;81.61;101760.84;5014359;28;20113;-77
2022/03/17 03:14:47;;;;;;;25.45;8.15;;;;;;;6.73;81.63;101774.66;4996471;28;20076;-77
2022/03/17 03:17:12;;;;;;;23.65;8.85;;;;;;;6.69;81.61;101766.88;5014366;28;20034;-77
2022/03/17 03:19:38;;;;;;;25.10;8.68;;;;;;;6.75;80.97;101785.28;4996746;28;20021;-77
2022/03/17 03:22:03;;;;;;;29.98;8.52;;;;;;;6.72;80.72;101785.44;5014105;28;20040;-77
2022/03/17 03:24:29;;;;;;;23.27;8.43;;;;;;;6.70;80.72;101784.63;5014525;28;20116;-77
2022/03/17 03:26:54;;;;;;;28.63;9.68;;;;;;;6.85;80.30;101797.31;4996483;28;20038;-77
2022/03/17 03:29:23;;;;;;;22.63;8.77;;;;;;;6.79;80.04;101809.13;5014373;28;20030;-76
2022/03/17 03:31:54;;;;;;;18.23;7.72;;;;;;;6.79;80.11;101802.94;4996762;28;20487;-76
2022/03/17 03:34:20;;;;;;;26.60;7.35;;;;;;;6.82;79.92;101811.66;5013540;28;20501;-77
2022/03/17 03:39:33;;;;;;;23.75;7.25;;;;;;;6.77;79.77;101820.84;5014149;28;20077;-78
2022/03/17 03:41:59;;;;;;;23.00;6.70;;;;;;;6.76;79.88;101821.81;5016393;28;20108;-76
2022/03/17 03:44:24;;;;;;;18.85;6.78;;;;;;;6.79;80.13;101832.34;5027044;28;20116;-77
2022/03/17 03:46:50;;;;;;;30.60;7.30;;;;;;;6.84;79.68;101833.00;5002635;28;20124;-76
2022/03/17 03:49:15;;;;;;;34.95;7.40;;;;;;;6.84;78.96;101841.00;5015640;28;20037;-77
2022/03/17 03:51:41;;;;;;;21.38;6.90;;;;;;;6.81;79.16;101839.34;5014523;28;20033;-78
2022/03/17 03:54:13;;;;;;;28.80;6.38;;;;;;;6.95;78.70;101852.94;5017628;28;20084;-78
2022/03/17 03:56:39;;;;;;;;;;;;;;;6.95;77.82;101857.41;5025195;28;20042;-77
2022/03/17 03:59:08;;;;;;;24.42;6.13;;;;;;;6.83;77.95;101861.53;5013744;28;19914;-77
2022/03/17 04:01:33;;;;;;;17.58;5.53;;;;;;;6.84;77.69;101867.75;5024513;28;20107;-77
2022/03/17 04:04:01;;;;;;;23.05;7.32;;;;;;;6.80;77.43;101874.16;5046547;28;20056;-77
2022/03/17 04:06:27;;;;;;;29.17;6.57;;;;;;;6.78;77.10;101870.72;5053072;28;20025;-78
2022/03/17 04:08:53;;;;;;;23.92;6.68;;;;;;;6.78;76.98;101884.97;5040843;28;20056;-77
2022/03/17 04:11:19;;;;;;;19.58;5.47;;;;;;;6.68;76.97;101897.00;5033269;28;20029;-77
2022/03/17 04:13:44;;;;;;;28.15;6.43;;;;;;;6.60;77.20;101900.94;5033463;28;20044;-77
2022/03/17 04:16:10;;;;;;;22.90;5.60;;;;;;;6.62;76.98;101901.75;5033196;28;20029;-76
2022/03/17 04:18:35;;;;;;;21.65;5.75;;;;;;;6.48;77.07;101913.06;5032990;28;20045;-78
2022/03/17 04:21:01;;;;;;;27.10;5.65;;;;;;;6.53;77.09;101911.91;5033096;28;20116;-76
2022/03/17 04:23:26;;;;;;;19.13;5.70;;;;;;;6.55;77.11;101918.06;5040435;28;20109;-76
2022/03/17 04:25:52;;;;;;;23.40;5.53;;;;;;;6.57;77.38;101907.31;5032955;28;20028;-77
2022/03/17 04:28:17;;;;;;;25.10;6.45;;;;;;;6.62;77.29;101917.78;5033116;28;20451;-77
2022/03/17 04:30:43;;;;;;;31.17;6.25;;;;;;;6.56;76.96;101914.44;5032856;28;20108;-78
2022/03/17 04:33:10;;;;;;;36.38;7.38;;;;;;;6.47;77.48;101920.22;5032818;28;20032;-78
2022/03/17 04:35:36;;;;;;;27.30;5.30;;;;;;;6.43;77.91;101921.25;5014867;28;20120;-78
2022/03/17 04:38:01;;;;;;;23.85;6.45;;;;;;;6.51;77.38;101932.47;5032968;28;20029;-78
2022/03/17 04:40:27;;;;;;;27.00;6.40;;;;;;;6.51;77.27;101953.84;5014902;28;20033;-77
2022/03/17 04:42:53;;;;;;;16.33;5.65;;;;;;;6.48;77.47;101955.81;5015054;28;20052;-78
2022/03/17 04:45:18;;;;;;;23.05;5.97;;;;;;;6.37;78.06;101950.06;5031949;28;20033;-79
2022/03/17 04:47:45;;;;;;;25.65;5.93;;;;;;;6.39;78.07;101957.06;5032728;28;20029;-78
2022/03/17 04:50:10;;;;;;;20.30;5.60;;;;;;;6.31;78.48;101958.31;5014921;28;20029;-78
2022/03/17 04:55:21;;;;;;;20.08;6.68;;;;;;;6.27;78.57;101970.94;5033475;28;20036;-77
2022/03/17 04:57:46;;;;;;;13.85;5.28;;;;;;;6.10;78.41;101967.25;5032992;28;20030;-77
2022/03/17 05:00:12;;;;;;;19.60;3.97;;;;;;;5.98;78.79;101979.31;5032669;28;20022;-77
2022/03/17 05:02:38;;;;;;;8.77;3.85;;;;;;;5.78;79.36;101974.72;5032317;28;21022;-79
2022/03/17 05:05:04;;;;;;;12.77;4.97;;;;;;;5.70;79.75;101989.31;5033060;28;20033;-77
2022/03/17 05:07:29;;;;;;;10.48;4.30;;;;;;;5.62;79.93;101996.75;5032758;28;20036;-79
2022/03/17 05:09:55;;;;;;;23.70;4.22;;;;;;;5.38;80.25;101991.44;5045928;28;20029;-78
2022/03/17 05:12:20;;;;;;;13.00;4.38;;;;;;;5.27;81.13;101996.31;5052235;28;20025;-76
2022/03/17 05:14:46;;;;;;;15.38;5.18;;;;;;;4.99;82.10;101987.59;5052640;28;20483;-77
2022/03/17 05:17:11;;;;;;;12.50;4.53;;;;;;;4.86;83.05;102000.50;5024663;28;20041;-77
2022/03/17 05:19:37;;;;;;;21.70;5.55;;;;;;;4.87;83.90;102012.03;5047495;28;20036;-78
2022/03/17 05:22:02;;;;;;;24.13;5.78;;;;;;;4.71;84.36;102002.84;5052352;28;20017;-81
2022/03/17 05:24:28;;;;;;;16.45;5.78;;;;;;;4.70;85.19;102003.78;5034383;28;20036;-77
2022/03/17 05:26:56;;;;;;;17.67;6.45;;;;;;;4.74;85.35;102027.56;5047277;28;20052;-74
2022/03/17 05:29:21;;;;;;;40.67;9.20;;;;;;;4.77;85.48;102032.81;5034046;28;20021;-76
2022/03/17 05:31:47;;;;;;;31.33;6.90;;;;;;;4.79;85.29;102038.09;5032676;28;20087;-77
2022/03/17 05:34:13;;;;;;;31.33;6.68;;;;;;;4.75;85.36;102028.44;5032401;28;20100;-77
2022/03/17 05:36:39;;;;;;;28.58;9.43;;;;;;;4.79;85.59;102027.44;5030404;28;20025;-77
2022/03/17 05:39:04;;;;;;;22.23;6.97;;;;;;;4.80;84.91;102026.53;5031485;28;20025;-76
2022/03/17 05:41:29;;;;;;;23.33;6.78;;;;;;;4.81;83.72;102031.78;5031673;28;20021;-77
2022/03/17 05:43:55;;;;;;;28.15;6.60;;;;;;;4.53;83.61;102023.00;5031580;28;20091;-77
2022/03/17 05:46:22;;;;;;;41.30;11.23;;;;;;;4.73;84.18;102046.31;5031458;28;20029;-76
2022/03/17 05:48:48;;;;;;;46.00;8.13;;;;;;;4.75;83.94;102024.00;5031362;28;20022;-75
2022/03/17 05:51:14;;;;;;;29.55;6.53;;;;;;;4.71;83.01;102019.69;5013747;28;20025;-76
2022/03/17 05:53:39;;;;;;;29.15;7.72;;;;;;;4.70;82.73;102031.28;5031742;28;20510;-76
2022/03/17 05:56:05;;;;;;;25.65;6.35;;;;;;;4.72;83.26;102039.22;5031529;28;20498;-75
2022/03/17 05:58:30;;;;;;;29.45;6.95;;;;;;;4.64;82.84;102046.63;5018729;28;20479;-77
2022/03/17 06:00:57;;;;;;;16.63;6.80;;;;;;;4.61;83.06;102055.59;5034754;28;20480;-75
2022/03/17 06:03:22;;;;;;;31.38;6.78;;;;;;;4.56;83.11;102046.00;5035641;28;20046;-76
2022/03/17 06:05:48;;;;;;;19.00;5.82;;;;;;;4.46;83.24;102061.44;5035302;28;20450;-75
2022/03/17 06:08:14;;;;;;;24.08;7.25;;;;;;;4.41;83.15;102068.69;5035421;28;20025;-76
2022/03/17 06:10:40;;;;;;;22.23;6.53;;;;;;;4.32;83.40;102066.34;5017799;28;20030;-75
2022/03/17 06:13:06;;;;;;;18.38;6.30;;;;;;;4.36;83.96;102068.88;5035577;28;20080;-76
2022/03/17 06:15:34;;;;;;;27.35;6.70;;;;;;;4.40;84.29;102075.81;5017763;28;20033;-76
2022/03/17 06:18:03;;;;;;;21.67;7.78;;;;;;;4.39;84.11;102075.88;5035367;28;20025;-76
2022/03/17 06:20:30;;;;;;;24.63;8.15;;;;;;;4.40;83.92;102078.47;5017905;28;20025;-77
2022/03/17 06:22:58;;;;;;;18.38;6.03;;;;;;;4.45;83.33;102074.78;5017778;28;20021;-77
2022/03/17 06:25:25;;;;;;;23.63;6.07;;;;;;;4.34;82.64;102081.34;5035385;28;20045;-77
2022/03/17 06:27:51;;;;;;;16.70;7.35;;;;;;;4.42;82.30;102096.22;5017249;28;20120;-77
2022/03/17 06:30:34;;;;;;;34.30;9.13;;;;;;;4.53;83.17;102088.72;5017159;28;20029;-77
2022/03/17 06:33:01;;;;;;;13.98;6.55;;;;;;;4.64;83.00;102099.91;5033692;28;20098;-77
2022/03/17 06:35:27;;;;;;;25.60;5.55;;;;;;;4.55;81.78;102100.22;5017096;28;20082;-76
2022/03/17 06:37:58;;;;;;;26.95;8.77;;;;;;;4.59;81.79;102104.50;5034626;28;20035;-77
2022/03/17 06:40:25;;;;;;;14.52;6.50;;;;;;;4.61;81.13;102116.00;5034723;28;20021;-76
2022/03/17 06:42:51;;;;;;;22.92;6.55;;;;;;;4.69;80.70;102117.47;5034770;28;20141;-77
2022/03/17 06:45:17;;;;;;;17.23;5.45;;;;;;;4.79;80.04;102115.38;5017299;28;20018;-77
2022/03/17 06:47:43;;;;;;;20.35;5.63;;;;;;;4.85;79.83;102126.72;5034656;28;20024;-76
2022/03/17 06:50:10;;;;;;;15.35;4.95;;;;;;;4.83;77.13;102114.38;5034650;28;20047;-76
2022/03/17 06:52:35;;;;;;;19.35;5.65;;;;;;;4.83;75.45;102122.38;5017304;28;20029;-76
2022/03/17 06:55:02;;;;;;;28.65;7.47;;;;;;;4.98;75.98;102128.97;5034656;28;20117;-76
2022/03/17 06:57:27;;;;;;;14.55;4.82;;;;;;;5.13;77.31;102115.09;5034854;28;20029;-76
2022/03/17 06:59:53;;;;;;;22.65;7.25;;;;;;;5.22;77.02;102130.78;5034629;28;20030;-77
2022/03/17 07:02:19;;;;;;;16.88;5.22;;;;;;;5.26;74.01;102135.94;5022853;28;20033;-78
2022/03/17 07:04:45;;;;;;;22.10;9.55;;;;;;;5.24;73.91;102143.13;5047156;28;20037;-77
2022/03/17 07:07:11;;;;;;;21.73;6.03;;;;;;;5.23;73.77;102149.38;5033837;28;20112;-76
2022/03/17 07:09:37;;;;;;;29.55;6.28;;;;;;;5.25;73.54;102157.34;5033610;28;20584;-76
2022/03/17 07:12:04;;;;;;;20.42;5.82;;;;;;;5.21;72.12;102145.91;5032953;28;20030;-77
2022/03/17 07:14:30;;;;;;;17.65;5.57;;;;;;;5.20;71.31;102162.81;5034174;28;20104;-77
2022/03/17 07:16:55;;;;;;;16.33;5.00;;;;;;;5.19;72.00;102168.22;5033924;28;20101;-77
2022/03/17 07:19:21;;;;;;;11.65;4.95;;;;;;;5.10;72.23;102174.75;5033713;28;20041;-77
2022/03/17 07:21:46;;;;;;;22.88;7.88;;;;;;;5.16;72.18;102173.66;5016366;28;20030;-76
2022/03/17 07:24:12;;;;;;;14.93;5.40;;;;;;;5.16;71.54;102195.00;5017142;28;20049;-77
2022/03/17 07:26:41;;;;;;;15.20;7.63;;;;;;;5.14;70.74;102187.03;5037758;28;20033;-76
2022/03/17 07:29:08;;;;;;;12.15;5.43;;;;;;;5.16;71.12;102190.53;5018964;28;20029;-76
2022/03/17 07:31:34;;;;;;;15.35;5.20;;;;;;;5.13;69.30;102189.78;5038372;28;20029;-78
2022/03/17 07:34:00;;;;;;;14.43;5.65;;;;;;;5.15;69.51;102190.59;5038537;28;20040;-77
2022/03/17 07:36:27;;;;;;;12.75;5.40;;;;;;;5.26;69.93;102201.78;5039972;28;20032;-76
2022/03/17 07:38:56;;;;;;;13.55;4.70;;;;;;;5.27;67.92;102199.03;5037361;28;20056;-75
2022/03/17 07:41:22;;;;;;;12.65;4.95;;;;;;;5.23;66.54;102194.72;5038317;28;20026;-77
2022/03/17 07:43:48;;;;;;;14.23;7.07;;;;;;;5.29;67.54;102207.00;5037508;28;20033;-77
2022/03/17 07:46:14;;;;;;;44.97;13.73;;;;;;;5.44;68.59;102217.16;5036983;28;20480;-76
2022/03/17 07:48:41;;;;;;;12.15;5.10;;;;;;;5.54;67.69;102215.88;5020482;28;20459;-77
2022/03/17 07:51:08;;;;;;;13.68;6.18;;;;;;;5.63;65.51;102228.88;5038866;28;20104;-77
2022/03/17 07:53:33;;;;;;;9.35;4.45;;;;;;;5.64;64.18;102213.75;5039424;28;20537;-78
2022/03/17 07:55:59;;;;;;;16.70;5.05;;;;;;;5.64;64.84;102213.75;5038717;28;20033;-79
2022/03/17 07:58:26;;;;;;;13.27;4.63;;;;;;;5.69;64.21;102214.47;5037077;28;20109;-79
2022/03/17 08:00:52;;;;;;;12.07;5.13;;;;;;;5.62;64.02;102227.16;5039466;28;20033;-80
2022/03/17 08:03:19;;;;;;;16.23;4.97;;;;;;;5.66;64.67;102227.91;5021454;28;20056;-78
2022/03/17 08:05:48;;;;;;;18.60;4.75;;;;;;;5.43;63.47;102216.28;5022061;28;20032;-80
2022/03/17 08:08:15;;;;;;;10.70;4.35;;;;;;;5.31;64.49;102216.69;5040930;28;20571;-80
2022/03/17 08:10:40;;;;;;;11.23;4.45;;;;;;;5.44;65.85;102241.16;5039982;28;20075;-78
2022/03/17 08:13:08;;;;;;;15.38;4.55;;;;;;;5.54;64.56;102228.34;5039242;28;20017;-78
2022/03/17 08:15:34;;;;;;;5.95;3.85;;;;;;;5.58;63.43;102257.56;5038496;28;20051;-78
2022/03/17 08:17:59;;;;;;;15.15;4.63;;;;;;;5.63;63.75;102257.38;5037911;28;20033;-78
2022/03/17 08:20:25;;;;;;;13.43;4.65;;;;;;;5.57;62.49;102252.25;5039021;28;20030;-77
2022/03/17 08:22:51;;;;;;;21.75;4.50;;;;;;;5.62;62.70;102269.00;5020914;28;20448;-78
2022/03/17 08:25:17;;;;;;;9.07;4.28;;;;;;;5.58;61.51;102262.00;5006530;28;20108;-78
2022/03/17 08:27:43;;;;;;;6.45;3.80;;;;;;;5.57;62.40;102281.59;5020888;28;20095;-78
2022/03/17 08:30:09;;;;;;;13.25;4.50;;;;;;;5.68;61.41;102287.47;5037390;28;20033;-77
2022/03/17 08:32:35;;;;;;;10.82;5.03;;;;;;;5.64;60.50;102286.69;5034848;28;20495;-78
2022/03/17 08:35:01;;;;;;;11.52;3.75;;;;;;;5.62;60.66;102285.00;5036143;28;20108;-78
2022/03/17 08:37:26;;;;;;;12.30;3.55;;;;;;;5.66;61.21;102307.97;5037805;28;20045;-80
2022/03/17 08:39:52;;;;;;;6.50;3.90;;;;;;;5.67;60.50;102296.41;5040583;28;20395;-77
2022/03/17 08:42:17;;;;;;;14.10;4.28;;;;;;;5.57;60.29;102294.94;5036900;28;20029;-77
2022/03/17 08:44:43;;;;;;;11.70;4.60;;;;;;;5.61;61.52;102293.94;5019970;28;20025;-79
2022/03/17 08:49:52;;;;;;;16.33;6.30;;;;;;;5.73;59.48;102304.19;5037293;28;20040;-77
2022/03/17 08:52:19;;;;;;;16.77;4.40;;;;;;;5.82;60.08;102310.09;5037607;28;20021;-77
2022/03/17 08:54:45;;;;;;;23.25;5.60;;;;;;;5.83;60.48;102310.97;5037719;28;20026;-77
2022/03/17 08:57:12;;;;;;;28.42;10.10;;;;;;;5.92;60.13;102316.00;5019671;28;20041;-77
2022/03/17 08:59:38;;;;;;;19.45;5.95;;;;;;;6.11;59.88;102324.25;5037141;28;20048;-78
2022/03/17 09:02:07;;;;;;;23.27;5.15;;;;;;;6.17;59.91;102322.22;5036872;28;20083;-77
2022/03/17 09:04:34;;;;;;;20.60;5.75;;;;;;;6.41;61.37;102313.31;5037145;28;20060;-77
2022/03/17 09:07:01;;;;;;;17.08;5.70;;;;;;;6.54;61.12;102327.09;5017751;28;20037;-78
2022/03/17 09:09:27;;;;;;;23.63;4.88;;;;;;;6.53;59.25;102331.56;5035923;28;20029;-77
2022/03/17 09:11:54;;;;;;;11.95;4.47;;;;;;;6.71;61.51;102335.34;5035427;28;20017;-77
2022/03/17 09:14:21;;;;;;;16.17;5.30;;;;;;;6.83;60.07;102344.69;5034651;28;20026;-77
2022/03/17 09:16:46;;;;;;;6.63;3.72;;;;;;;6.89;57.00;102350.69;5035578;28;20030;-77
2022/03/17 09:19:12;;;;;;;21.35;4.32;;;;;;;6.84;53.50;102346.44;5017394;28;20040;-77
2022/03/17 09:21:37;;;;;;;18.67;4.43;;;;;;;6.87;55.83;102346.31;5036096;28;20472;-77
2022/03/17 09:24:03;;;;;;;10.63;3.70;;;;;;;6.89;55.76;102348.00;5036215;28;20467;-77
2022/03/17 09:26:30;;;;;;;27.15;4.70;;;;;;;6.91;52.98;102334.59;5035734;28;20033;-78
2022/03/17 09:28:56;;;;;;;10.88;3.70;;;;;;;6.86;53.93;102355.25;5033730;28;20049;-78
2022/03/17 09:31:22;;;;;;;16.90;5.63;;;;;;;6.81;52.21;102346.56;5035733;28;20036;-77
2022/03/17 09:33:48;;;;;;;50.53;5.25;;;;;;;6.88;54.19;102353.44;5038651;28;20411;-77
2022/03/17 09:36:14;;;;;;;41.97;5.65;;;;;;;6.94;51.56;102355.88;5021389;28;20025;-77
2022/03/17 09:38:41;;;;;;;20.25;4.30;;;;;;;6.91;52.11;102358.66;5039440;28;20040;-77
2022/03/17 09:41:24;;;;;;;21.52;5.10;;;;;;;6.92;49.91;102365.72;5040298;28;20080;-78
2022/03/17 09:43:51;;;;;;;15.25;4.82;;;;;;;6.71;49.18;102367.44;5039367;28;20052;-77
2022/03/17 09:46:18;;;;;;;10.98;4.55;;;;;;;6.45;49.74;102372.88;5039923;28;20025;-79
2022/03/17 09:48:44;;;;;;;15.70;3.90;;;;;;;6.31;51.09;102357.34;5020385;28;20025;-77
2022/03/17 09:51:11;;;;;;;42.67;5.25;;;;;;;6.45;51.37;102373.72;5039441;28;20037;-76
2022/03/17 09:53:37;;;;;;;38.95;8.40;;;;;;;6.47;50.91;102376.34;5038123;28;20087;-79
2022/03/17 09:56:03;;;;;;;21.35;5.07;;;;;;;6.57;49.29;102354.56;5037594;28;20033;-77
2022/03/17 09:58:28;;;;;;;55.58;6.78;;;;;;;6.76;52.46;102359.25;5038564;28;20025;-79
2022/03/17 10:00:55;;;;;;;18.83;4.43;;;;;;;6.74;48.71;102377.13;5037681;28;20034;-77
2022/03/17 10:03:22;;;;;;;60.92;8.18;;;;;;;6.80;48.65;102374.22;5038720;28;20124;-77
2022/03/17 10:05:48;;;;;;;59.83;7.60;;;;;;;6.86;48.21;102365.97;5037518;28;20079;-79
2022/03/17 10:08:15;;;;;;;94.32;9.63;;;;;;;6.91;49.39;102385.41;5019228;28;20025;-77
2022/03/17 10:10:42;;;;;;;16.55;4.90;;;;;;;6.65;46.57;102394.38;5038145;28;20049;-77
2022/03/17 10:13:14;;;;;;;41.50;6.13;;;;;;;6.37;46.45;102386.50;5038397;28;20104;-77
2022/03/17 10:15:40;;;;;;;29.63;6.57;;;;;;;6.32;47.75;102385.81;5039009;28;20030;-77
2022/03/17 10:18:26;;;;;;;11.88;4.47;;;;;;;6.31;46.54;102400.09;5019674;28;20368;-77
2022/03/17 10:21:12;;;;;;;18.02;4.40;;;;;;;6.25;47.77;102388.72;5037894;28;20045;-78
2022/03/17 10:23:55;;;;;;;23.33;7.18;;;;;;;6.17;48.01;102383.69;5036650;28;20021;-79
2022/03/17 10:26:42;;;;;;;18.80;3.80;;;;;;;6.24;47.73;102376.31;5037625;28;20087;-76
2022/03/17 10:29:10;;;;;;;29.63;4.65;;;;;;;6.33;48.12;102381.34;5038903;28;20499;-77
2022/03/17 10:31:59;;;;;;;38.92;4.45;;;;;;;6.07;46.58;102390.25;5037944;28;20018;-77
2022/03/17 10:34:31;;;;;;;47.83;5.95;;;;;;;6.16;46.76;102387.28;5037143;28;20104;-78
2022/03/17 10:37:08;;;;;;;32.13;5.10;;;;;;;6.33;47.77;102370.66;5037299;28;20026;-80
2022/03/17 10:39:44;;;;;;;73.07;11.35;;;;;;;6.54;48.37;102381.41;5037008;28;20264;-77
2022/03/17 10:42:13;;;;;;;24.63;5.68;;;;;;;6.83;47.25;102360.72;5036793;28;20030;-78
2022/03/17 10:44:40;;;;;;;55.90;8.20;;;;;;;6.98;46.53;102376.19;5035168;28;20021;-77
2022/03/17 10:47:06;;;;;;;51.50;7.63;;;;;;;7.09;47.19;102379.34;5037039;28;20048;-78
2022/03/17 10:49:33;;;;;;;53.05;6.78;;;;;;;7.15;46.49;102373.75;5036234;28;20060;-77
2022/03/17 10:51:59;;;;;;;95.47;8.02;;;;;;;7.19;46.97;102374.47;5037681;28;20088;-79
2022/03/17 10:54:24;;;;;;;66.18;8.57;;;;;;;7.10;48.11;102389.09;5036996;28;20063;-77
2022/03/17 10:57:05;;;;;;;23.80;4.32;;;;;;;6.92;45.62;102381.78;5037322;28;20053;-79
2022/03/17 10:59:47;;;;;;;44.83;7.47;;;;;;;6.99;45.82;102384.16;5037789;28;20051;-78
2022/03/17 11:02:24;;;;;;;17.58;5.55;;;;;;;6.93;44.03;102378.19;5037224;28;20406;-77
2022/03/17 11:04:50;;;;;;;99.18;9.30;;;;;;;6.98;45.73;102371.72;5037110;28;20438;-77
2022/03/17 11:07:18;;;;;;;26.80;4.65;;;;;;;6.97;43.81;102382.50;5018186;28;20410;-75
2022/03/17 11:09:46;;;;;;;30.42;4.88;;;;;;;7.02;44.93;102372.47;5035542;28;20060;-78
2022/03/17 11:12:17;;;;;;;14.82;4.13;;;;;;;6.94;43.77;102379.94;5035043;28;20057;-78
2022/03/17 11:14:46;;;;;;;12.50;4.65;;;;;;;6.86;43.73;102374.88;5036029;28;20096;-76
2022/03/17 11:17:17;;;;;;;13.80;5.00;;;;;;;6.79;43.58;102386.72;5017544;28;20021;-78
2022/03/17 11:19:44;;;;;;;30.73;4.75;;;;;;;6.96;45.15;102373.59;5035590;28;20021;-78
2022/03/17 11:22:14;;;;;;;29.98;6.15;;;;;;;7.11;45.09;102383.69;5034911;28;20485;-78
2022/03/17 11:24:40;;;;;;;46.40;7.57;;;;;;;7.03;43.57;102376.91;5034715;28;20511;-78
2022/03/17 11:27:11;;;;;;;24.00;4.18;;;;;;;7.12;44.73;102384.56;5035660;28;20025;-77
2022/03/17 11:29:48;;;;;;;30.48;6.43;;;;;;;7.08;44.44;102385.63;5035430;28;20452;-77
2022/03/17 11:32:29;;;;;;;42.70;6.53;;;;;;;7.04;43.71;102398.22;5034957;28;20025;-77
2022/03/17 11:35:09;;;;;;;47.83;8.23;;;;;;;6.73;42.83;102389.63;5034730;28;20029;-77